createdAt,value
2023-04-09T00:02:43.643Z,6.50
2023-04-09T00:05:45.094Z,7.00
2023-04-09T00:08:46.525Z,6.10
2023-04-09T00:11:48.345Z,6.33
2023-04-09T00:14:50.330Z,6.43
2023-04-09T00:17:52.275Z,6.30
2023-04-09T00:20:54.092Z,6.83
2023-04-09T00:23:56.532Z,6.67
2023-04-09T00:26:58.345Z,6.23
2023-04-09T00:30:00.143Z,7.00
2023-04-09T00:33:02.221Z,6.97
2023-04-09T00:36:04.299Z,7.00
2023-04-09T00:39:06.208Z,7.30
2023-04-09T00:42:08.233Z,6.60
2023-04-09T00:45:10.325Z,7.13
2023-04-09T00:48:13.900Z,7.93
2023-04-09T00:51:16.342Z,7.97
2023-04-09T00:54:18.997Z,7.50
2023-04-09T00:57:20.777Z,8.27
2023-04-09T01:00:22.774Z,7.90
2023-04-09T01:03:24.704Z,7.73
2023-04-09T01:06:48.592Z,8.70
2023-04-09T01:10:17.244Z,8.23
2023-04-09T01:13:42.888Z,8.63
2023-04-09T01:16:50.835Z,8.03
2023-04-09T01:20:06.594Z,8.17
2023-04-09T01:23:46.721Z,8.10
2023-04-09T01:26:58.392Z,9.20
2023-04-09T01:30:06.473Z,8.23
2023-04-09T01:33:10.761Z,8.00
2023-04-09T01:36:14.785Z,7.83
2023-04-09T01:39:16.772Z,7.67
2023-04-09T01:42:20.028Z,8.67
2023-04-09T01:45:22.423Z,7.93
2023-04-09T01:48:24.899Z,8.20
2023-04-09T01:51:27.254Z,7.97
2023-04-09T01:54:29.094Z,7.90
2023-04-09T01:57:30.963Z,8.03
2023-04-09T02:00:41.363Z,8.03
2023-04-09T02:03:55.920Z,8.37
2023-04-09T02:07:09.930Z,7.47
2023-04-09T02:10:13.565Z,8.87
2023-04-09T02:13:18.262Z,7.80
2023-04-09T02:16:21.770Z,7.87
2023-04-09T02:19:23.764Z,7.90
2023-04-09T02:22:25.182Z,8.50
2023-04-09T02:25:27.654Z,7.97
2023-04-09T02:28:29.432Z,8.83
2023-04-09T02:31:31.383Z,8.93
2023-04-09T02:34:33.178Z,8.27
2023-04-09T02:37:34.939Z,8.43
2023-04-09T02:40:37.349Z,8.17
2023-04-09T02:43:38.982Z,8.83
2023-04-09T02:46:42.234Z,8.77
2023-04-09T02:49:44.745Z,8.73
2023-04-09T02:52:47.362Z,8.83
2023-04-09T02:55:49.260Z,8.60
2023-04-09T02:58:54.039Z,9.00
2023-04-09T03:01:56.521Z,8.10
2023-04-09T03:04:58.084Z,9.03
2023-04-09T03:07:59.856Z,8.70
2023-04-09T03:11:01.720Z,8.73
2023-04-09T03:14:03.684Z,8.67
2023-04-09T03:17:05.912Z,8.97
2023-04-09T03:20:08.189Z,9.53
2023-04-09T03:23:12.805Z,8.33
2023-04-09T03:26:19.525Z,10.03
2023-04-09T03:29:43.529Z,8.97
2023-04-09T03:32:45.549Z,9.43
2023-04-09T03:35:49.660Z,9.13
2023-04-09T03:38:58.038Z,9.43
2023-04-09T03:42:05.200Z,9.57
2023-04-09T03:45:16.788Z,9.70
2023-04-09T03:48:22.963Z,10.50
2023-04-09T03:51:26.943Z,10.03
2023-04-09T03:54:32.586Z,10.30
2023-04-09T03:57:35.211Z,10.43
2023-04-09T04:00:39.383Z,10.30
2023-04-09T04:04:00.406Z,9.80
2023-04-09T04:07:16.959Z,10.03
2023-04-09T04:10:29.838Z,10.80
2023-04-09T04:13:32.036Z,9.90
2023-04-09T04:16:41.169Z,10.77
2023-04-09T04:19:43.921Z,9.70
2023-04-09T04:23:07.711Z,10.67
2023-04-09T04:26:13.321Z,10.43
2023-04-09T04:29:16.346Z,10.00
2023-04-09T04:32:24.886Z,9.90
2023-04-09T04:35:28.653Z,9.80
2023-04-09T04:38:35.032Z,10.30
2023-04-09T04:41:40.312Z,10.73
2023-04-09T04:44:50.363Z,10.33
2023-04-09T04:48:12.374Z,10.80
2023-04-09T04:51:13.873Z,10.53
2023-04-09T04:57:46.182Z,11.17
2023-04-09T05:01:09.294Z,10.50
2023-04-09T05:04:11.899Z,11.40
2023-04-09T05:07:14.330Z,10.80
2023-04-09T05:10:23.670Z,11.57
2023-04-09T05:13:25.841Z,11.13
2023-04-09T05:16:28.487Z,11.40
2023-04-09T05:19:37.672Z,11.40
2023-04-09T05:22:39.123Z,12.07
2023-04-09T05:25:41.863Z,11.13
2023-04-09T05:28:52.327Z,11.20
2023-04-09T05:31:56.707Z,11.03
2023-04-09T05:35:06.795Z,10.97
2023-04-09T05:38:14.066Z,11.30
2023-04-09T05:41:22.736Z,10.80
2023-04-09T05:44:37.683Z,11.40
2023-04-09T05:47:47.130Z,11.63
2023-04-09T05:50:55.756Z,11.43
2023-04-09T05:54:01.246Z,11.90
2023-04-09T05:57:07.490Z,11.87
2023-04-09T06:00:13.332Z,11.60
2023-04-09T06:03:23.317Z,11.27
2023-04-09T06:06:25.328Z,11.80
2023-04-09T06:09:27.892Z,11.80
2023-04-09T06:12:35.266Z,11.93
2023-04-09T06:15:39.556Z,12.53
2023-04-09T06:18:42.427Z,11.70
2023-04-09T06:21:44.349Z,12.37
2023-04-09T06:24:48.744Z,11.60
2023-04-09T06:27:50.510Z,11.93
2023-04-09T06:30:53.801Z,10.70
2023-04-09T06:33:56.437Z,11.33
2023-04-09T06:36:58.056Z,12.40
2023-04-09T06:40:01.386Z,11.67
2023-04-09T06:43:04.099Z,12.73
2023-04-09T06:46:17.174Z,12.53
2023-04-09T06:49:18.999Z,12.97
2023-04-09T06:52:21.404Z,12.83
2023-04-09T06:55:23.348Z,12.97
2023-04-09T06:58:24.857Z,12.03
2023-04-09T07:01:27.751Z,13.03
2023-04-09T07:04:29.981Z,12.60
2023-04-09T07:07:32.052Z,12.73
2023-04-09T07:10:33.828Z,13.30
2023-04-09T07:13:35.768Z,13.30
2023-04-09T07:16:37.757Z,12.40
2023-04-09T07:19:39.582Z,12.40
2023-04-09T07:22:41.873Z,12.67
2023-04-09T07:25:43.677Z,12.87
2023-04-09T07:28:45.418Z,12.07
2023-04-09T07:31:47.571Z,12.20
2023-04-09T07:34:52.045Z,12.83
2023-04-09T07:37:53.859Z,12.63
2023-04-09T07:40:55.939Z,12.67
2023-04-09T07:43:58.040Z,12.20
2023-04-09T07:46:59.518Z,11.60
2023-04-09T07:50:01.234Z,11.77
2023-04-09T07:53:05.619Z,12.23
2023-04-09T07:56:07.773Z,12.30
2023-04-09T07:59:09.574Z,12.60
2023-04-09T08:02:14.350Z,12.67
2023-04-09T08:05:17.040Z,12.43
2023-04-09T08:08:19.774Z,12.10
2023-04-09T08:11:25.159Z,12.57
2023-04-09T08:14:26.806Z,12.27
2023-04-09T08:17:29.535Z,12.00
2023-04-09T08:20:32.942Z,12.07
2023-04-09T08:23:34.740Z,12.57
2023-04-09T08:26:37.451Z,12.17
2023-04-09T08:29:40.420Z,12.37
2023-04-09T08:32:42.514Z,11.43
2023-04-09T08:35:44.706Z,12.13
2023-04-09T08:38:47.094Z,12.40
2023-04-09T08:41:51.953Z,12.50
2023-04-09T08:44:53.870Z,11.00
2023-04-09T08:47:59.602Z,11.40
2023-04-09T08:51:01.786Z,11.73
2023-04-09T08:54:04.822Z,11.90
2023-04-09T08:57:07.479Z,11.97
2023-04-09T09:00:09.922Z,12.17
2023-04-09T09:03:15.805Z,11.33
2023-04-09T09:06:22.433Z,11.20
2023-04-09T09:09:24.781Z,11.47
2023-04-09T09:12:40.553Z,10.07
2023-04-09T09:15:42.384Z,9.83
2023-04-09T09:18:44.794Z,10.70
2023-04-09T09:21:56.129Z,9.30
2023-04-09T09:24:58.888Z,9.87
2023-04-09T09:28:08.971Z,10.30
2023-04-09T09:31:12.378Z,8.40
2023-04-09T09:34:13.862Z,8.90
2023-04-09T09:37:28.865Z,8.37
2023-04-09T09:40:30.689Z,9.70
2023-04-09T09:43:42.586Z,8.40
2023-04-09T09:46:45.425Z,8.20
2023-04-09T09:49:51.111Z,8.47
2023-04-09T09:53:03.204Z,7.90
2023-04-09T09:56:07.083Z,7.30
2023-04-09T09:59:18.604Z,6.30
2023-04-09T10:02:23.470Z,6.43
2023-04-09T10:05:27.439Z,6.57
2023-04-09T10:08:31.141Z,8.13
2023-04-09T10:11:36.296Z,7.33
2023-04-09T10:14:39.444Z,6.97
2023-04-09T10:17:41.283Z,7.43
2023-04-09T10:21:30.461Z,7.10
2023-04-09T10:24:34.638Z,7.70
2023-04-09T10:27:36.469Z,8.23
2023-04-09T10:30:38.347Z,7.90
2023-04-09T10:33:43.461Z,8.33
2023-04-09T10:36:55.243Z,8.53
2023-04-09T10:40:21.598Z,8.10
2023-04-09T10:43:24.081Z,6.83
2023-04-09T10:46:30.931Z,6.43
2023-04-09T10:49:38.074Z,6.80
2023-04-09T10:52:40.895Z,7.63
2023-04-09T10:55:49.383Z,6.80
2023-04-09T10:58:51.393Z,5.97
2023-04-09T11:01:54.532Z,4.90
2023-04-09T11:05:18.180Z,4.87
2023-04-09T11:08:21.907Z,5.50
2023-04-09T11:11:26.690Z,5.57
2023-04-09T11:14:28.532Z,5.83
2023-04-09T11:17:35.830Z,7.13
2023-04-09T11:20:38.828Z,5.90
2023-04-09T11:23:40.236Z,4.80
2023-04-09T11:26:42.025Z,5.43
2023-04-09T11:29:43.453Z,5.63
2023-04-09T11:32:46.081Z,5.57
2023-04-09T11:35:49.012Z,4.93
2023-04-09T11:38:51.515Z,5.30
2023-04-09T11:41:53.550Z,4.57
2023-04-09T11:44:55.334Z,5.00
2023-04-09T11:47:57.512Z,5.57
2023-04-09T11:51:03.690Z,5.87
2023-04-09T11:54:06.536Z,5.20
2023-04-09T11:57:08.342Z,5.57
2023-04-09T12:00:19.621Z,4.93
2023-04-09T12:03:28.420Z,5.20
2023-04-09T12:06:30.756Z,5.20
2023-04-09T12:09:32.141Z,5.83
2023-04-09T12:12:47.273Z,5.40
2023-04-09T12:15:49.617Z,5.03
2023-04-09T12:18:55.645Z,4.93
2023-04-09T12:21:58.276Z,5.30
2023-04-09T12:25:00.401Z,4.80
2023-04-09T12:28:03.747Z,5.00
2023-04-09T12:31:10.786Z,4.63
2023-04-09T12:34:12.753Z,4.40
2023-04-09T12:37:14.518Z,4.90
2023-04-09T12:40:16.986Z,4.50
2023-04-09T12:43:19.172Z,4.37
2023-04-09T12:46:20.802Z,4.73
2023-04-09T12:49:22.618Z,4.80
2023-04-09T12:52:24.687Z,5.00
2023-04-09T12:55:27.896Z,4.60
2023-04-09T12:58:29.773Z,4.40
2023-04-09T13:01:32.750Z,4.07
2023-04-09T13:04:34.951Z,4.17
2023-04-09T13:07:37.081Z,4.33
2023-04-09T13:10:39.163Z,4.47
2023-04-09T13:13:42.584Z,4.20
2023-04-09T13:16:44.551Z,4.27
2023-04-09T13:19:50.052Z,3.87
2023-04-09T13:22:52.700Z,4.03
2023-04-09T13:25:54.733Z,3.60
2023-04-09T13:28:57.532Z,3.80
2023-04-09T13:32:01.695Z,4.00
2023-04-09T13:35:03.852Z,3.67
2023-04-09T13:38:06.094Z,3.80
2023-04-09T13:41:07.569Z,4.17
2023-04-09T13:44:12.254Z,3.43
2023-04-09T13:47:15.893Z,3.53
2023-04-09T13:50:17.783Z,3.50
2023-04-09T13:53:20.334Z,3.47
2023-04-09T13:56:24.589Z,4.37
2023-04-09T13:59:26.500Z,4.00
2023-04-09T14:02:29.258Z,3.60
2023-04-09T14:05:32.648Z,3.40
2023-04-09T14:08:35.530Z,3.20
2023-04-09T14:11:40.106Z,3.20
2023-04-09T14:14:41.986Z,3.30
2023-04-09T14:17:44.287Z,3.33
2023-04-09T14:20:46.411Z,3.20
2023-04-09T14:23:48.360Z,3.20
2023-04-09T14:26:52.983Z,2.97
2023-04-09T14:29:55.868Z,3.03
2023-04-09T14:32:57.682Z,3.47
2023-04-09T14:36:00.179Z,3.00
2023-04-09T14:39:04.126Z,3.10
2023-04-09T14:42:06.255Z,3.00
2023-04-09T14:45:08.454Z,3.30
2023-04-09T14:48:10.275Z,2.90
2023-04-09T14:51:12.198Z,3.27
2023-04-09T14:54:14.098Z,3.47
2023-04-09T14:57:15.993Z,3.20
2023-04-09T15:00:17.385Z,3.20
2023-04-09T15:03:19.077Z,2.97
2023-04-09T15:06:21.072Z,3.33
2023-04-09T15:09:23.520Z,3.00
2023-04-09T15:12:27.180Z,3.07
2023-04-09T15:15:29.558Z,3.03
2023-04-09T15:18:30.958Z,3.40
2023-04-09T15:21:36.056Z,3.60
2023-04-09T15:24:38.193Z,3.70
2023-04-09T15:27:39.670Z,3.10
2023-04-09T15:30:41.884Z,2.97
2023-04-09T15:33:44.614Z,3.13
2023-04-09T15:36:46.465Z,2.70
2023-04-09T15:39:48.297Z,2.47
2023-04-09T15:42:50.072Z,2.60
2023-04-09T15:45:51.921Z,2.60
2023-04-09T15:49:11.726Z,2.80
2023-04-09T15:52:13.633Z,2.67
2023-04-09T15:55:15.118Z,2.83
2023-04-09T15:58:17.194Z,2.70
2023-04-09T16:01:19.462Z,2.83
2023-04-09T16:04:21.161Z,3.23
2023-04-09T16:07:23.069Z,3.10
2023-04-09T16:10:25.255Z,3.10
2023-04-09T16:13:27.450Z,3.00
2023-04-09T16:16:29.495Z,2.97
2023-04-09T16:19:31.372Z,3.23
2023-04-09T16:22:33.529Z,2.83
2023-04-09T16:25:36.129Z,2.83
2023-04-09T16:28:38.192Z,2.93
2023-04-09T16:31:42.961Z,2.70
2023-04-09T16:34:44.513Z,2.70
2023-04-09T16:37:46.423Z,2.93
2023-04-09T16:40:48.357Z,3.07
2023-04-09T16:43:51.733Z,3.37
2023-04-09T16:46:53.707Z,2.90
2023-04-09T16:49:55.124Z,2.87
2023-04-09T16:52:57.185Z,3.00
2023-04-09T16:56:02.343Z,3.40
2023-04-09T16:59:04.024Z,3.20
2023-04-09T17:02:09.269Z,3.27
2023-04-09T17:05:11.361Z,3.37
2023-04-09T17:08:13.974Z,3.20
2023-04-09T17:11:17.019Z,2.87
2023-04-09T17:14:19.868Z,2.73
2023-04-09T17:17:22.150Z,3.17
2023-04-09T17:20:25.883Z,2.97
2023-04-09T17:23:28.154Z,3.20
2023-04-09T17:26:30.107Z,3.03
2023-04-09T17:29:31.983Z,3.37
2023-04-09T17:32:33.778Z,3.17
2023-04-09T17:35:35.712Z,3.33
2023-04-09T17:38:37.653Z,3.23
2023-04-09T17:41:39.433Z,3.20
2023-04-09T17:44:43.545Z,3.50
2023-04-09T17:47:45.627Z,3.37
2023-04-09T17:50:50.026Z,3.53
2023-04-09T17:53:53.501Z,3.57
2023-04-09T17:56:56.822Z,3.30
2023-04-09T17:59:58.654Z,3.73
2023-04-09T18:03:00.675Z,4.00
2023-04-09T18:06:03.144Z,4.63
2023-04-09T18:09:04.917Z,4.30
2023-04-09T18:12:07.322Z,5.47
2023-04-09T18:15:09.569Z,5.20
2023-04-09T18:18:11.364Z,4.17
2023-04-09T18:21:13.181Z,4.70
2023-04-09T18:24:15.450Z,4.50
2023-04-09T18:27:17.698Z,5.00
2023-04-09T18:30:19.668Z,4.90
2023-04-09T18:33:21.656Z,5.40
2023-04-09T18:36:24.092Z,5.00
2023-04-09T18:39:25.778Z,4.40
2023-04-09T18:42:27.299Z,5.40
2023-04-09T18:45:29.065Z,6.03
2023-04-09T18:48:31.717Z,6.03
2023-04-09T18:51:33.356Z,6.97
2023-04-09T18:54:36.409Z,7.10
2023-04-09T18:57:38.203Z,6.17
2023-04-09T19:00:39.696Z,6.10
2023-04-09T19:03:42.974Z,6.20
2023-04-09T19:06:47.267Z,5.67
2023-04-09T19:09:49.157Z,5.90
2023-04-09T19:12:53.717Z,6.33
2023-04-09T19:15:57.359Z,7.50
2023-04-09T19:18:58.836Z,7.30
2023-04-09T19:22:00.677Z,7.20
2023-04-09T19:25:02.479Z,7.67
2023-04-09T19:28:04.772Z,8.80
2023-04-09T19:31:06.600Z,9.57
2023-04-09T19:34:10.627Z,10.73
2023-04-09T19:37:15.009Z,9.93
2023-04-09T19:40:18.054Z,9.03
2023-04-09T19:43:19.437Z,9.53
2023-04-09T19:46:20.962Z,10.17
2023-04-09T19:49:23.164Z,8.93
2023-04-09T19:52:25.912Z,9.03
2023-04-09T19:55:27.871Z,9.87
2023-04-09T19:58:31.901Z,8.40
2023-04-09T20:01:33.918Z,8.00
2023-04-09T20:04:36.386Z,8.20
2023-04-09T20:07:38.403Z,8.40
2023-04-09T20:10:42.577Z,8.60
2023-04-09T20:13:44.481Z,8.07
2023-04-09T20:16:46.565Z,7.00
2023-04-09T20:19:49.410Z,6.20
2023-04-09T20:22:56.150Z,6.37
2023-04-09T20:25:57.947Z,6.20
2023-04-09T20:29:00.331Z,6.43
2023-04-09T20:32:02.147Z,7.03
2023-04-09T20:35:05.472Z,7.03
2023-04-09T20:38:07.494Z,7.47
2023-04-09T20:41:09.377Z,8.23
2023-04-09T20:44:11.183Z,7.73
2023-04-09T20:47:13.088Z,7.60
2023-04-09T20:50:15.862Z,7.50
2023-04-09T20:53:17.861Z,7.10
2023-04-09T20:56:41.459Z,7.33
2023-04-09T20:59:43.347Z,7.10
2023-04-09T21:02:44.930Z,7.00
2023-04-09T21:05:46.649Z,7.00
2023-04-09T21:08:48.478Z,6.97
2023-04-09T21:11:50.354Z,7.00
2023-04-09T21:14:52.221Z,7.53
2023-04-09T21:17:54.056Z,9.03
2023-04-09T21:20:56.007Z,8.80
2023-04-09T21:23:57.924Z,8.97
2023-04-09T21:26:59.702Z,9.20
2023-04-09T21:30:01.592Z,8.30
2023-04-09T21:33:08.388Z,7.27
2023-04-09T21:39:32.704Z,6.57
2023-04-09T21:42:34.546Z,7.30
2023-04-09T21:45:36.564Z,6.50
2023-04-09T21:48:40.635Z,6.73
2023-04-09T21:52:07.196Z,6.33
2023-04-09T21:55:10.166Z,7.00
2023-04-09T21:58:12.056Z,6.73
2023-04-09T22:04:36.738Z,6.77
2023-04-09T22:07:39.909Z,7.23
2023-04-09T22:10:41.377Z,6.90
2023-04-09T22:13:42.839Z,7.13
2023-04-09T22:16:44.618Z,7.07
2023-04-09T22:19:46.618Z,7.23
2023-04-09T22:22:48.404Z,7.30
2023-04-09T22:25:50.834Z,6.93
2023-04-09T22:28:54.376Z,7.23
2023-04-09T22:31:56.430Z,7.30
2023-04-09T22:34:58.202Z,7.57
2023-04-09T22:38:00.013Z,7.93
2023-04-09T22:41:01.852Z,7.53
2023-04-09T22:44:03.730Z,7.67
2023-04-09T22:47:05.523Z,7.63
2023-04-09T22:50:08.191Z,7.77
2023-04-09T22:53:09.987Z,7.70
2023-04-09T22:56:12.475Z,7.60
2023-04-09T22:59:15.485Z,9.07
2023-04-09T23:02:17.369Z,8.87
2023-04-09T23:05:19.666Z,8.50
2023-04-09T23:08:21.554Z,8.03
2023-04-09T23:11:23.955Z,8.50
2023-04-09T23:14:26.086Z,7.83
2023-04-09T23:17:27.900Z,7.87
2023-04-09T23:20:29.794Z,7.70
2023-04-09T23:23:31.565Z,8.00
2023-04-09T23:26:34.247Z,7.73
2023-04-09T23:29:35.613Z,7.93
2023-04-09T23:32:37.484Z,7.50
2023-04-09T23:35:39.457Z,7.90
2023-04-09T23:38:43.644Z,7.93
2023-04-09T23:41:45.425Z,8.53
2023-04-09T23:44:47.188Z,8.23
2023-04-09T23:47:49.657Z,8.27
2023-04-09T23:51:09.449Z,8.47
2023-04-09T23:54:11.446Z,8.40
2023-04-09T23:57:13.378Z,8.23
